Time;durP1;ratioP1;P1;durP2;ratioP2;P2;SDS_P1;SDS_P2;PMS_P1;PMS_P2;Temp;Humidity;BMP_temperature;BMP_pressure;BME280_temperature;BME280_humidity;BME280_pressure;Samples;Min_cycle;Max_cycle;Signal;HPM_P1;HPM_P2
2021/09/07 00:01:16;;;;;;;5.97;2.35;;;12.60;73.80;;;;;;5067942;28;19950;-73
2021/09/07 00:03:42;;;;;;;;;;;12.60;73.70;;;;;;5070713;28;20025;-72
2021/09/07 00:06:07;;;;;;;4.45;1.98;;;12.60;73.80;;;;;;5071751;28;20355;-74
2021/09/07 00:08:33;;;;;;;;;;;12.60;73.90;;;;;;5072428;28;20103;-73
2021/09/07 00:10:58;;;;;;;8.55;2.47;;;12.60;74.10;;;;;;5071653;28;19904;-73
2021/09/07 00:13:24;;;;;;;;;;;12.50;74.20;;;;;;5072056;28;20033;-72
2021/09/07 00:15:50;;;;;;;4.68;1.90;;;12.50;74.50;;;;;;5071443;28;19904;-73
2021/09/07 00:18:15;;;;;;;;;;;12.50;74.20;;;;;;5072011;28;20044;-74
2021/09/07 00:20:41;;;;;;;5.18;1.88;;;12.50;74.40;;;;;;5070195;28;19998;-74
2021/09/07 00:23:06;;;;;;;;;;;12.50;74.40;;;;;;5071908;28;20469;-74
2021/09/07 00:25:32;;;;;;;5.13;2.42;;;12.50;74.80;;;;;;5071162;28;19909;-73
2021/09/07 00:27:58;;;;;;;;;;;12.50;75.10;;;;;;5070424;28;20115;-73
2021/09/07 00:30:23;;;;;;;7.85;2.00;;;12.40;75.30;;;;;;5071521;28;19919;-73
2021/09/07 00:32:49;;;;;;;;;;;12.40;75.30;;;;;;5070759;28;20082;-72
2021/09/07 00:35:14;;;;;;;4.85;2.33;;;12.40;75.50;;;;;;5069954;28;19916;-73
2021/09/07 00:37:41;;;;;;;;;;;12.40;75.70;;;;;;5071699;28;20420;-73
2021/09/07 00:40:08;;;;;;;7.43;2.20;;;12.50;76.10;;;;;;5069829;28;19908;-73
2021/09/07 00:42:36;;;;;;;4.25;2.13;;;12.40;76.20;;;;;;5071229;28;20052;-73
2021/09/07 00:45:06;;;;;;;8.13;2.67;;;12.40;76.30;;;;;;5071095;28;20020;-73
2021/09/07 00:47:31;;;;;;;7.10;2.10;;;12.50;76.60;;;;;;5070942;28;20021;-74
2021/09/07 00:49:57;;;;;;;;;;;12.40;76.60;;;;;;5071588;28;20032;-73
2021/09/07 00:52:24;;;;;;;5.70;2.90;;;12.40;76.90;;;;;;5071015;28;20372;-73
2021/09/07 00:54:50;;;;;;;9.45;2.28;;;12.40;77.10;;;;;;5070780;28;20053;-72
2021/09/07 00:57:16;;;;;;;7.20;2.83;;;12.40;77.10;;;;;;5070789;28;20032;-73
2021/09/07 00:59:42;;;;;;;;;;;12.40;77.50;;;;;;5071403;28;20089;-71
2021/09/07 01:02:08;;;;;;;4.53;2.35;;;12.40;77.60;;;;;;5070671;28;19960;-73
2021/09/07 01:04:34;;;;;;;;;;;12.40;78.20;;;;;;5069921;28;20606;-72
2021/09/07 01:07:04;;;;;;;7.80;2.85;;;12.30;78.50;;;;;;5070453;28;19915;-72
2021/09/07 01:09:30;;;;;;;7.60;2.88;;;12.30;78.70;;;;;;5069274;28;20134;-73
2021/09/07 01:11:55;;;;;;;;;;;12.30;79.20;;;;;;5071152;28;20067;-74
2021/09/07 01:14:32;;;;;;;7.68;2.83;;;12.20;79.60;;;;;;5069581;28;19908;-74
2021/09/07 01:16:58;;;;;;;5.80;2.13;;;12.20;80.20;;;;;;5070449;28;20046;-74
2021/09/07 01:19:26;;;;;;;9.73;2.58;;;12.20;80.90;;;;;;5069026;28;20032;-73
2021/09/07 01:21:52;;;;;;;5.78;2.70;;;12.10;80.70;;;;;;5070507;28;20155;-73
2021/09/07 01:24:21;;;;;;;;;;;12.10;80.60;;;;;;5071003;28;20103;-73
2021/09/07 01:26:47;;;;;;;8.85;3.40;;;12.10;80.90;;;;;;5070440;28;19908;-73
2021/09/07 01:29:13;;;;;;;;;;;12.10;81.00;;;;;;5070760;28;20028;-73
2021/09/07 01:31:38;;;;;;;5.10;2.22;;;12.00;81.30;;;;;;5070355;28;20007;-73
2021/09/07 01:34:04;;;;;;;;;;;12.00;81.50;;;;;;5070691;28;20415;-73
2021/09/07 01:36:29;;;;;;;8.27;2.50;;;11.90;81.70;;;;;;5070113;28;20381;-73
2021/09/07 01:38:55;;;;;;;;;;;11.90;82.00;;;;;;5070569;28;20576;-73
2021/09/07 01:41:21;;;;;;;8.82;2.15;;;11.90;82.30;;;;;;5069972;28;20388;-73
2021/09/07 01:43:51;;;;;;;5.60;2.38;;;11.90;82.60;;;;;;5070067;28;20029;-73
2021/09/07 01:46:18;;;;;;;6.63;2.33;;;11.80;82.70;;;;;;5069982;28;20143;-73
2021/09/07 01:48:44;;;;;;;4.72;2.10;;;11.80;82.90;;;;;;5069956;28;20028;-74
2021/09/07 01:51:09;;;;;;;;;;;11.80;83.30;;;;;;5070017;28;20035;-73
2021/09/07 01:53:35;;;;;;;5.93;2.30;;;11.80;83.70;;;;;;5069906;28;19912;-73
2021/09/07 01:56:01;;;;;;;;;;;11.80;83.80;;;;;;5069906;28;20082;-73
2021/09/07 01:58:26;;;;;;;7.72;2.58;;;11.80;84.20;;;;;;5069476;28;19916;-74
2021/09/07 02:00:52;;;;;;;6.63;3.75;;;11.70;84.20;;;;;;5069711;28;20056;-73
2021/09/07 02:03:18;;;;;;;;;;;11.80;84.40;;;;;;5069929;28;20073;-73
2021/09/07 02:05:44;;;;;;;6.63;2.58;;;11.80;84.50;;;;;;5068314;28;19908;-73
2021/09/07 02:08:09;;;;;;;7.45;2.70;;;11.80;84.60;;;;;;5069470;28;20028;-73
2021/09/07 02:10:35;;;;;;;;;;;11.70;84.80;;;;;;5070035;28;20463;-72
2021/09/07 02:13:01;;;;;;;5.85;2.47;;;11.70;85.20;;;;;;5069347;28;19905;-73
2021/09/07 02:15:29;;;;;;;;;;;11.60;85.60;;;;;;5069594;28;20457;-72
2021/09/07 02:17:55;;;;;;;8.05;3.17;;;11.50;86.10;;;;;;5069347;28;19916;-72
2021/09/07 02:20:20;;;;;;;;;;;11.50;86.60;;;;;;5068346;28;20397;-73
2021/09/07 02:22:46;;;;;;;8.25;2.92;;;11.40;87.00;;;;;;5069207;28;19905;-73
2021/09/07 02:25:12;;;;;;;;;;;11.40;87.30;;;;;;5069396;28;20074;-72
2021/09/07 02:27:37;;;;;;;5.78;2.55;;;11.40;87.70;;;;;;5069025;28;19958;-72
2021/09/07 02:30:04;;;;;;;;;;;11.40;88.00;;;;;;5068226;28;20028;-74
2021/09/07 02:32:30;;;;;;;6.15;2.90;;;11.40;88.00;;;;;;5069023;28;19938;-72
2021/09/07 02:34:57;;;;;;;;;;;11.40;87.90;;;;;;5069534;28;20112;-73
2021/09/07 02:37:22;;;;;;;7.57;3.00;;;11.40;88.30;;;;;;5068847;28;19916;-72
2021/09/07 02:39:48;;;;;;;;;;;11.40;88.40;;;;;;5069506;28;20278;-73
2021/09/07 02:42:14;;;;;;;7.82;2.83;;;11.40;88.60;;;;;;5068878;28;19908;-72
2021/09/07 02:44:39;;;;;;;;;;;11.30;88.70;;;;;;5069292;28;20048;-72
2021/09/07 02:47:05;;;;;;;7.65;3.05;;;11.30;88.90;;;;;;5067336;28;19933;-72
2021/09/07 02:49:30;;;;;;;;;;;11.30;89.00;;;;;;5069319;28;20052;-73
2021/09/07 02:51:56;;;;;;;7.72;2.72;;;11.40;89.30;;;;;;5068704;28;20398;-73
2021/09/07 02:54:22;;;;;;;;;;;11.30;89.40;;;;;;5069000;28;20063;-72
2021/09/07 02:56:48;;;;;;;5.05;2.80;;;11.30;89.60;;;;;;5067556;28;19913;-72
2021/09/07 02:59:13;;;;;;;6.65;2.92;;;11.30;89.90;;;;;;5068575;28;20845;-73
2021/09/07 03:01:39;;;;;;;;;;;11.30;90.00;;;;;;5068024;28;20123;-73
2021/09/07 03:04:04;;;;;;;6.15;2.90;;;11.30;90.00;;;;;;5067185;28;20003;-72
2021/09/07 03:06:30;;;;;;;;;;;11.30;90.00;;;;;;5069067;28;20075;-73
2021/09/07 03:08:56;;;;;;;6.75;2.88;;;11.40;89.70;;;;;;5068459;28;19915;-73
2021/09/07 03:11:21;;;;;;;;;;;11.40;89.80;;;;;;5068901;28;20178;-74
2021/09/07 03:13:47;;;;;;;5.93;2.47;;;11.40;89.60;;;;;;5067125;28;19911;-73
2021/09/07 03:16:12;;;;;;;5.63;2.65;;;11.50;89.50;;;;;;5068511;28;20501;-73
2021/09/07 03:18:38;;;;;;;;;;;11.50;89.30;;;;;;5068881;28;20020;-73
2021/09/07 03:21:04;;;;;;;4.82;2.80;;;11.50;89.10;;;;;;5068432;28;19915;-73
2021/09/07 03:23:29;;;;;;;;;;;11.60;89.10;;;;;;5068647;28;20107;-73
2021/09/07 03:25:55;;;;;;;7.25;2.83;;;11.60;89.30;;;;;;5068264;28;20702;-72
2021/09/07 03:28:20;;;;;;;;;;;11.60;89.10;;;;;;5067499;28;20489;-73
2021/09/07 03:30:46;;;;;;;12.68;3.72;;;11.60;89.00;;;;;;5068360;28;19912;-73
2021/09/07 03:33:11;;;;;;;;;;;11.60;88.90;;;;;;5068388;28;20485;-72
2021/09/07 03:35:37;;;;;;;8.05;3.30;;;11.60;88.80;;;;;;5067215;28;19916;-73
2021/09/07 03:38:03;;;;;;;;;;;11.70;88.80;;;;;;5071535;28;20025;-74
2021/09/07 03:40:29;;;;;;;7.32;2.95;;;11.70;88.70;;;;;;5072621;28;20407;-73
2021/09/07 03:42:54;;;;;;;;;;;11.80;88.40;;;;;;5072741;28;20032;-74
2021/09/07 03:45:20;;;;;;;5.25;2.63;;;11.80;88.30;;;;;;5072147;28;19952;-73
2021/09/07 03:47:45;;;;;;;;;;;11.90;88.20;;;;;;5072500;28;20052;-74
2021/09/07 03:50:14;;;;;;;7.72;2.40;;;12.00;88.80;;;;;;5072102;28;19909;-74
2021/09/07 03:52:40;;;;;;;6.53;3.20;;;12.00;88.00;;;;;;5072118;28;20107;-73
2021/09/07 03:55:06;;;;;;;4.85;2.40;;;12.00;87.80;;;;;;5071934;28;20048;-72
2021/09/07 03:57:32;;;;;;;6.40;2.88;;;12.00;87.70;;;;;;5071894;28;20048;-73
2021/09/07 03:59:58;;;;;;;;;;;12.00;87.60;;;;;;5072636;28;20575;-74
2021/09/07 04:02:24;;;;;;;6.15;2.78;;;12.00;87.70;;;;;;5071916;28;20384;-72
2021/09/07 04:04:50;;;;;;;6.25;2.60;;;12.10;87.60;;;;;;5071897;28;20029;-74
2021/09/07 04:07:15;;;;;;;;;;;12.10;87.30;;;;;;5072045;28;20059;-73
2021/09/07 04:09:41;;;;;;;4.95;1.98;;;12.10;87.30;;;;;;5071862;28;19908;-74
2021/09/07 04:12:06;;;;;;;;;;;12.20;87.20;;;;;;5072166;28;20078;-73
2021/09/07 04:14:32;;;;;;;4.97;2.78;;;12.20;87.10;;;;;;5071569;28;20383;-73
2021/09/07 04:16:58;;;;;;;;;;;12.30;87.00;;;;;;5071905;28;20434;-73
2021/09/07 04:19:23;;;;;;;4.47;2.42;;;12.30;86.80;;;;;;5071440;28;19915;-73
2021/09/07 04:21:49;;;;;;;;;;;12.30;86.60;;;;;;5070700;28;20021;-74
2021/09/07 04:24:15;;;;;;;8.43;2.90;;;12.30;86.50;;;;;;5071368;28;19908;-73
2021/09/07 04:26:40;;;;;;;;;;;12.30;86.50;;;;;;5072050;28;20115;-74
2021/09/07 04:29:06;;;;;;;7.22;2.50;;;12.30;86.70;;;;;;5071393;28;19920;-73
2021/09/07 04:31:32;;;;;;;;;;;12.40;86.60;;;;;;5071746;28;20021;-74
2021/09/07 04:33:57;;;;;;;10.13;2.92;;;12.40;86.70;;;;;;5071305;28;19995;-73
2021/09/07 04:36:23;;;;;;;;;;;12.40;86.40;;;;;;5071538;28;20560;-71
2021/09/07 04:38:49;;;;;;;13.25;3.15;;;12.50;86.30;;;;;;5071319;28;19911;-73
2021/09/07 04:41:14;;;;;;;;;;;12.60;85.90;;;;;;5069441;28;20086;-71
2021/09/07 04:43:40;;;;;;;9.23;2.33;;;12.60;86.10;;;;;;5068823;28;19912;-73
2021/09/07 04:46:06;;;;;;;;;;;12.60;85.80;;;;;;5071232;28;20485;-72
2021/09/07 04:48:31;;;;;;;8.70;3.00;;;12.80;85.60;;;;;;5070759;28;19967;-72
2021/09/07 04:50:57;;;;;;;;;;;12.90;84.70;;;;;;5071511;28;20025;-73
2021/09/07 04:53:23;;;;;;;4.60;2.53;;;13.30;83.30;;;;;;5071124;28;19976;-70
2021/09/07 04:55:48;;;;;;;;;;;13.70;81.40;;;;;;5069796;28;20060;-71
2021/09/07 04:58:14;;;;;;;4.72;2.50;;;14.10;80.10;;;;;;5070858;28;19920;-71
2021/09/07 05:00:39;;;;;;;;;;;14.30;79.30;;;;;;5070164;28;20033;-71
2021/09/07 05:03:05;;;;;;;6.45;2.40;;;14.50;78.60;;;;;;5070862;28;19912;-72
2021/09/07 05:05:31;;;;;;;;;;;14.70;78.00;;;;;;5070920;28;20024;-71
2021/09/07 05:07:58;;;;;;;6.05;2.63;;;14.90;76.70;;;;;;5070561;28;20384;-71
2021/09/07 05:10:25;;;;;;;8.50;2.75;;;14.90;76.40;;;;;;5069267;28;20028;-71
2021/09/07 05:12:50;;;;;;;4.07;2.03;;;14.90;76.30;;;;;;5070588;28;20447;-72
2021/09/07 05:15:16;;;;;;;;;;;15.00;76.30;;;;;;5069606;28;20062;-73
2021/09/07 05:17:44;;;;;;;8.77;2.58;;;15.40;75.30;;;;;;5070632;28;19967;-74
2021/09/07 05:20:10;;;;;;;5.00;2.53;;;16.00;73.20;;;;;;5070562;28;20086;-74
2021/09/07 05:22:36;;;;;;;5.57;2.38;;;16.50;71.20;;;;;;5070865;28;20082;-71
2021/09/07 05:25:05;;;;;;;8.25;2.70;;;16.90;69.90;;;;;;5070352;28;20436;-71
2021/09/07 05:27:31;;;;;;;5.95;2.50;;;17.30;68.90;;;;;;5070134;28;20547;-71
2021/09/07 05:29:57;;;;;;;3.78;2.35;;;17.60;68.00;;;;;;5069140;28;20082;-70
2021/09/07 05:32:22;;;;;;;7.43;2.25;;;18.10;66.50;;;;;;5070320;28;20029;-72
2021/09/07 05:34:49;;;;;;;8.50;2.40;;;18.40;65.80;;;;;;5068875;28;20060;-71
2021/09/07 05:37:14;;;;;;;9.63;2.42;;;18.90;64.60;;;;;;5070078;28;20032;-70
2021/09/07 05:39:40;;;;;;;9.77;2.92;;;19.20;63.00;;;;;;5070075;28;20539;-71
2021/09/07 05:42:06;;;;;;;9.63;3.25;;;19.30;62.30;;;;;;5070019;28;20040;-70
2021/09/07 05:44:31;;;;;;;5.53;2.67;;;19.30;62.60;;;;;;5070138;28;20108;-70
2021/09/07 05:46:59;;;;;;;4.30;2.60;;;19.40;62.00;;;;;;5069210;28;20763;-70
2021/09/07 05:49:25;;;;;;;11.27;3.60;;;19.60;61.50;;;;;;5067332;28;20136;-69
2021/09/07 05:51:51;;;;;;;5.80;2.20;;;19.80;60.20;;;;;;5067827;28;20051;-70
2021/09/07 05:54:16;;;;;;;7.10;2.78;;;20.00;59.10;;;;;;5069501;28;20044;-71
2021/09/07 05:56:42;;;;;;;7.43;3.10;;;20.00;58.70;;;;;;5068350;28;20020;-72
2021/09/07 05:59:08;;;;;;;10.63;2.80;;;20.00;58.80;;;;;;5069561;28;20086;-71
2021/09/07 06:01:35;;;;;;;6.10;2.20;;;20.20;58.60;;;;;;5068224;28;20020;-71
2021/09/07 06:04:01;;;;;;;5.07;2.42;;;20.40;57.30;;;;;;5069892;28;20046;-71
2021/09/07 06:06:27;;;;;;;4.78;2.40;;;20.20;56.20;;;;;;5068477;28;20024;-72
2021/09/07 06:08:52;;;;;;;7.18;2.17;;;20.20;57.10;;;;;;5068335;28;20146;-71
2021/09/07 06:11:18;;;;;;;10.20;3.20;;;20.60;56.60;;;;;;5069326;28;20401;-71
2021/09/07 06:13:43;;;;;;;6.80;2.95;;;20.70;56.20;;;;;;5069534;28;20071;-71
2021/09/07 06:16:09;;;;;;;10.07;2.58;;;21.30;54.40;;;;;;5069351;28;20032;-70
2021/09/07 06:18:35;;;;;;;5.45;2.80;;;21.60;54.10;;;;;;5069439;28;20050;-71
2021/09/07 06:21:00;;;;;;;5.13;3.35;;;22.20;52.70;;;;;;5069435;28;20389;-72
2021/09/07 06:23:26;;;;;;;5.93;2.72;;;22.70;51.90;;;;;;5069235;28;20082;-71
2021/09/07 06:25:51;;;;;;;7.05;3.28;;;23.40;49.50;;;;;;5069068;28;20025;-71
2021/09/07 06:28:17;;;;;;;7.95;3.35;;;23.60;49.50;;;;;;5069202;28;20048;-72
2021/09/07 06:30:43;;;;;;;11.63;3.17;;;24.00;49.80;;;;;;5067647;28;20024;-71
2021/09/07 06:33:08;;;;;;;6.70;3.35;;;24.20;48.80;;;;;;5068836;28;20024;-71
2021/09/07 06:35:34;;;;;;;11.82;2.80;;;24.50;47.70;;;;;;5068973;28;20063;-71
2021/09/07 06:37:59;;;;;;;10.55;3.03;;;24.80;47.20;;;;;;5069100;28;20032;-71
2021/09/07 06:40:44;;;;;;;8.07;3.60;;;25.20;44.80;;;;;;5068984;28;20078;-72
2021/09/07 06:43:10;;;;;;;12.85;2.88;;;25.90;43.60;;;;;;5068763;28;20485;-72
2021/09/07 06:45:35;;;;;;;4.60;2.35;;;26.00;43.20;;;;;;5068933;28;20033;-72
2021/09/07 06:48:01;;;;;;;10.07;3.00;;;26.20;42.90;;;;;;5068834;28;20038;-72
2021/09/07 06:50:26;;;;;;;6.70;3.35;;;26.10;42.50;;;;;;5068941;28;20064;-72
2021/09/07 06:52:52;;;;;;;10.10;2.83;;;26.20;41.50;;;;;;5068859;28;20551;-72
2021/09/07 06:55:18;;;;;;;4.15;2.40;;;26.10;41.40;;;;;;5068492;28;20534;-71
2021/09/07 06:57:43;;;;;;;9.48;2.75;;;26.40;40.80;;;;;;5068721;28;20105;-71
2021/09/07 07:00:09;;;;;;;7.90;3.15;;;26.60;41.10;;;;;;5067700;28;20041;-71
2021/09/07 07:02:40;;;;;;;8.57;3.40;;;27.10;39.40;;;;;;5068799;28;20036;-71
2021/09/07 07:05:07;;;;;;;4.38;2.60;;;27.10;39.10;;;;;;5068524;28;20037;-72
2021/09/07 07:07:33;;;;;;;3.67;2.25;;;27.40;38.90;;;;;;5068413;28;20033;-71
2021/09/07 07:10:00;;;;;;;9.15;2.85;;;27.30;38.80;;;;;;5068553;28;20028;-71
2021/09/07 07:12:26;;;;;;;5.57;2.88;;;27.70;38.30;;;;;;5067606;28;20020;-72
2021/09/07 07:14:51;;;;;;;5.15;2.95;;;27.90;38.30;;;;;;5068526;28;20028;-71
2021/09/07 07:17:17;;;;;;;10.82;3.45;;;28.20;37.20;;;;;;5067035;28;20625;-72
2021/09/07 07:19:43;;;;;;;2.72;1.90;;;28.20;37.10;;;;;;5068377;28;20025;-72
2021/09/07 07:22:08;;;;;;;4.90;3.03;;;27.80;38.10;;;;;;5068332;28;20086;-71
2021/09/07 07:24:34;;;;;;;10.02;3.42;;;28.30;37.10;;;;;;5068286;28;20093;-72
2021/09/07 07:27:01;;;;;;;6.55;3.47;;;28.60;36.50;;;;;;5068095;28;20024;-72
2021/09/07 07:29:27;;;;;;;9.50;3.10;;;29.40;35.50;;;;;;5068221;28;20025;-72
2021/09/07 07:31:52;;;;;;;8.07;3.28;;;29.60;34.60;;;;;;5068413;28;20404;-72
2021/09/07 07:34:18;;;;;;;10.27;3.40;;;29.70;35.10;;;;;;5068352;28;20024;-72
2021/09/07 07:36:44;;;;;;;11.40;3.50;;;30.00;34.90;;;;;;5068291;28;20051;-72
2021/09/07 07:39:10;;;;;;;7.78;3.50;;;30.40;33.10;;;;;;5068077;28;20086;-71
2021/09/07 07:41:35;;;;;;;6.18;2.78;;;30.60;32.30;;;;;;5068302;28;20103;-72
2021/09/07 07:44:01;;;;;;;11.52;2.85;;;30.70;32.00;;;;;;5068301;28;20397;-72
2021/09/07 07:46:27;;;;;;;6.53;3.25;;;30.40;32.90;;;;;;5068151;28;20032;-72
2021/09/07 07:48:53;;;;;;;6.05;3.10;;;30.40;32.80;;;;;;5068050;28;20431;-72
2021/09/07 07:51:19;;;;;;;9.90;3.35;;;31.40;31.10;;;;;;5068000;28;20036;-72
2021/09/07 07:53:45;;;;;;;11.63;3.33;;;31.60;31.00;;;;;;5068580;28;20020;-71
2021/09/07 07:56:11;;;;;;;8.15;2.97;;;31.60;31.60;;;;;;5067809;28;20541;-69
2021/09/07 07:58:36;;;;;;;5.45;2.88;;;31.90;31.40;;;;;;5067974;28;20075;-72
2021/09/07 08:01:03;;;;;;;13.40;3.47;;;32.10;30.40;;;;;;5067948;28;20052;-72
2021/09/07 08:03:29;;;;;;;6.50;3.70;;;32.20;30.40;;;;;;5066758;28;20479;-72
2021/09/07 08:05:54;;;;;;;8.80;3.80;;;32.40;30.10;;;;;;5067949;28;20116;-71
2021/09/07 08:08:20;;;;;;;11.75;3.80;;;32.50;29.80;;;;;;5067903;28;20099;-72
2021/09/07 08:10:45;;;;;;;6.88;3.20;;;32.80;29.90;;;;;;5067981;28;20029;-71
2021/09/07 08:13:11;;;;;;;9.80;3.70;;;33.10;29.80;;;;;;5067836;28;20451;-70
2021/09/07 08:15:37;;;;;;;8.27;3.33;;;33.10;29.90;;;;;;5067854;28;20031;-72
2021/09/07 08:18:02;;;;;;;6.63;3.67;;;32.90;30.10;;;;;;5067755;28;20039;-72
2021/09/07 08:20:32;;;;;;;6.05;3.97;;;32.90;29.90;;;;;;5067903;28;20036;-71
2021/09/07 08:22:59;;;;;;;7.53;3.45;;;32.80;30.20;;;;;;5068503;28;20027;-72
2021/09/07 08:25:25;;;;;;;6.30;3.65;;;33.10;29.70;;;;;;5071264;28;20025;-71
2021/09/07 08:27:51;;;;;;;10.48;3.95;;;33.10;29.50;;;;;;5071646;28;20083;-72
2021/09/07 08:30:17;;;;;;;12.43;3.45;;;33.20;30.10;;;;;;5071448;28;20082;-72
2021/09/07 08:32:43;;;;;;;11.98;3.45;;;33.20;30.00;;;;;;5070006;28;20131;-72
2021/09/07 08:35:10;;;;;;;13.05;3.35;;;33.40;30.10;;;;;;5071058;28;20039;-71
2021/09/07 08:37:39;;;;;;;6.07;3.55;;;33.30;30.10;;;;;;5071276;28;20056;-72
2021/09/07 08:40:07;;;;;;;7.93;4.60;;;33.30;30.50;;;;;;5071216;28;20028;-71
2021/09/07 08:42:33;;;;;;;8.00;2.88;;;33.20;29.90;;;;;;5071104;28;20055;-71
2021/09/07 08:45:02;;;;;;;7.70;3.10;;;33.30;30.10;;;;;;5071102;28;20036;-71
2021/09/07 08:47:29;;;;;;;6.13;3.35;;;33.60;30.10;;;;;;5070884;28;20065;-72
2021/09/07 08:49:55;;;;;;;6.05;3.65;;;33.70;29.70;;;;;;5069842;28;20039;-72
2021/09/07 08:52:22;;;;;;;12.57;4.22;;;33.50;29.60;;;;;;5069789;28;20107;-72
2021/09/07 08:54:49;;;;;;;11.13;4.43;;;33.60;29.00;;;;;;5070699;28;20061;-72
2021/09/07 08:57:15;;;;;;;10.00;4.30;;;33.80;29.00;;;;;;5070744;28;20024;-71
2021/09/07 08:59:41;;;;;;;7.25;3.92;;;33.80;29.00;;;;;;5070889;28;20067;-72
2021/09/07 09:02:18;;;;;;;13.70;4.55;;;33.60;29.30;;;;;;5070854;28;20052;-71
2021/09/07 09:04:49;;;;;;;8.27;4.32;;;33.60;29.10;;;;;;5070916;28;20346;-71
2021/09/07 09:07:22;;;;;;;9.27;4.10;;;33.60;28.90;;;;;;5069391;28;20380;-71
2021/09/07 09:09:50;;;;;;;8.85;3.50;;;33.20;29.30;;;;;;5070781;28;20025;-72
2021/09/07 09:12:27;;;;;;;8.85;3.92;;;33.10;29.50;;;;;;5070703;28;20024;-73
2021/09/07 09:14:53;;;;;;;5.88;3.88;;;33.20;29.20;;;;;;5070640;28;20778;-72
2021/09/07 09:17:19;;;;;;;11.63;3.85;;;33.70;29.20;;;;;;5069127;28;20028;-71
2021/09/07 09:19:56;;;;;;;8.40;4.18;;;33.60;28.90;;;;;;5070573;28;20058;-71
2021/09/07 09:22:39;;;;;;;6.55;3.92;;;33.60;29.00;;;;;;5070457;28;20028;-71
2021/09/07 09:25:21;;;;;;;7.47;3.72;;;33.80;28.60;;;;;;5070198;28;20097;-71
2021/09/07 09:27:56;;;;;;;8.80;3.67;;;34.00;28.80;;;;;;5070611;28;20031;-72
2021/09/07 09:30:29;;;;;;;;;;;33.90;28.60;;;;;;5070760;28;20035;-72
2021/09/07 09:32:58;;;;;;;7.22;3.60;;;33.50;28.30;;;;;;5070244;28;20317;-72
2021/09/07 09:35:24;;;;;;;4.03;3.13;;;32.90;28.90;;;;;;5069231;28;20024;-70
2021/09/07 09:38:06;;;;;;;10.38;4.13;;;32.50;29.10;;;;;;5070174;28;20432;-72
2021/09/07 09:40:34;;;;;;;9.05;3.97;;;31.90;29.80;;;;;;5070006;28;20560;-71
2021/09/07 09:43:21;;;;;;;9.77;4.32;;;31.60;30.80;;;;;;5069894;28;20489;-72
2021/09/07 09:45:47;;;;;;;8.25;3.63;;;32.20;29.70;;;;;;5069808;28;20036;-71
2021/09/07 09:48:29;;;;;;;7.85;3.72;;;32.70;29.80;;;;;;5070071;28;20028;-71
2021/09/07 09:50:59;;;;;;;8.68;3.60;;;33.40;29.40;;;;;;5070103;28;20043;-71
2021/09/07 09:53:27;;;;;;;5.35;3.60;;;33.70;29.30;;;;;;5069713;28;20028;-70
2021/09/07 09:55:54;;;;;;;5.93;3.35;;;34.00;28.70;;;;;;5069638;28;20123;-70
2021/09/07 09:58:22;;;;;;;4.55;3.83;;;34.10;28.80;;;;;;5069853;28;20070;-70
2021/09/07 10:00:49;;;;;;;8.82;3.63;;;34.10;28.40;;;;;;5069730;28;20099;-70
2021/09/07 10:03:16;;;;;;;5.10;3.60;;;34.50;28.10;;;;;;5069609;28;20038;-71
2021/09/07 10:05:42;;;;;;;6.32;3.47;;;35.00;28.20;;;;;;5069552;28;20032;-70
2021/09/07 10:08:11;;;;;;;10.93;4.03;;;34.70;28.00;;;;;;5069357;28;20029;-70
2021/09/07 10:10:42;;;;;;;5.22;3.65;;;34.80;27.60;;;;;;5068207;28;20123;-70
2021/09/07 10:13:09;;;;;;;9.38;3.40;;;35.00;27.30;;;;;;5069325;28;20521;-70
2021/09/07 10:15:46;;;;;;;4.47;3.65;;;35.00;28.30;;;;;;5069374;28;20048;-71
2021/09/07 10:26:38;;;;;;;9.55;3.55;;;33.20;28.90;;;;;;5069338;28;20125;-70
2021/09/07 10:29:27;;;;;;;5.85;3.80;;;32.40;29.30;;;;;;5069205;28;20097;-68
2021/09/07 10:31:56;;;;;;;5.30;4.05;;;31.80;29.90;;;;;;5053503;28;20097;-71
2021/09/07 10:34:28;;;;;;;8.55;4.47;;;31.00;30.50;;;;;;5069376;28;20036;-70
2021/09/07 10:37:03;;;;;;;10.73;3.95;;;30.70;31.60;;;;;;5068914;28;20492;-71
2021/09/07 10:39:35;;;;;;;5.38;3.60;;;30.20;31.10;;;;;;5067626;28;20047;-71
2021/09/07 10:42:40;;;;;;;13.43;4.32;;;29.70;32.00;;;;;;5069159;28;20020;-72
2021/09/07 10:45:07;;;;;;;5.28;3.75;;;29.30;32.30;;;;;;5066055;28;20546;-73
2021/09/07 10:47:43;;;;;;;5.90;4.32;;;29.00;33.60;;;;;;5068618;28;20024;-71
2021/09/07 10:50:09;;;;;;;6.35;4.32;;;28.70;34.40;;;;;;5067401;28;20119;-71
2021/09/07 10:52:36;;;;;;;11.63;4.03;;;28.50;35.10;;;;;;5068755;28;20099;-71
2021/09/07 10:55:09;;;;;;;11.68;4.50;;;28.30;34.80;;;;;;5068682;28;20262;-71
2021/09/07 10:57:39;;;;;;;6.32;4.15;;;28.40;34.30;;;;;;5068627;28;20024;-71
2021/09/07 11:00:18;;;;;;;7.30;3.90;;;28.00;35.00;;;;;;5067656;28;20539;-71
2021/09/07 11:02:46;;;;;;;7.20;4.28;;;28.20;35.70;;;;;;5067163;28;20583;-71
2021/09/07 11:05:24;;;;;;;8.52;3.75;;;28.40;35.40;;;;;;5068582;28;20024;-72
2021/09/07 11:07:51;;;;;;;8.02;4.03;;;28.50;35.30;;;;;;5068625;28;20071;-72
2021/09/07 11:10:17;;;;;;;7.80;4.55;;;28.50;35.80;;;;;;5068510;28;20086;-71
2021/09/07 11:13:03;;;;;;;7.65;3.75;;;28.30;35.30;;;;;;5068522;28;20028;-72
2021/09/07 11:15:32;;;;;;;7.53;4.25;;;28.30;36.40;;;;;;5068183;28;20028;-71
2021/09/07 11:18:00;;;;;;;12.35;4.05;;;28.00;36.40;;;;;;5068446;28;20039;-71
2021/09/07 11:20:33;;;;;;;5.05;3.30;;;27.90;36.30;;;;;;5068517;28;20389;-71
2021/09/07 11:23:07;;;;;;;5.18;3.60;;;28.00;36.20;;;;;;5068310;28;20036;-70
2021/09/07 11:25:33;;;;;;;7.85;3.97;;;28.20;36.10;;;;;;5068230;28;20035;-71
2021/09/07 11:27:59;;;;;;;6.10;4.07;;;28.40;35.70;;;;;;5068203;28;20385;-71
2021/09/07 11:30:37;;;;;;;5.63;3.65;;;28.40;35.80;;;;;;5068334;28;20086;-71
2021/09/07 11:33:02;;;;;;;6.88;4.40;;;28.40;35.90;;;;;;5068119;28;20048;-71
2021/09/07 11:35:30;;;;;;;5.65;3.75;;;28.40;35.50;;;;;;5067012;28;20868;-71
2021/09/07 11:38:01;;;;;;;6.15;3.72;;;28.30;35.80;;;;;;5066978;28;20054;-71
2021/09/07 11:40:27;;;;;;;5.03;3.95;;;28.10;35.80;;;;;;5068200;28;20039;-71
2021/09/07 11:42:53;;;;;;;8.45;4.03;;;28.10;35.50;;;;;;5068161;28;20023;-71
2021/09/07 11:45:25;;;;;;;11.20;4.03;;;28.00;35.20;;;;;;5067953;28;20405;-71
2021/09/07 11:47:51;;;;;;;5.50;3.60;;;27.90;35.20;;;;;;5067519;28;20079;-72
2021/09/07 11:50:27;;;;;;;11.68;4.25;;;28.00;35.20;;;;;;5068240;28;20032;-71
2021/09/07 11:52:53;;;;;;;8.55;4.05;;;28.10;34.60;;;;;;5068008;28;20401;-71
2021/09/07 11:55:55;;;;;;;5.82;3.60;;;28.00;34.70;;;;;;5066483;28;20419;-71
2021/09/07 11:58:38;;;;;;;6.57;3.38;;;28.00;35.20;;;;;;5007049;28;20625;-71
2021/09/07 12:01:16;;;;;;;4.72;3.53;;;28.00;35.60;;;;;;5080659;28;20048;-71
2021/09/07 12:03:49;;;;;;;7.13;4.07;;;27.80;36.20;;;;;;5072072;28;20021;-71
2021/09/07 12:06:18;;;;;;;16.55;3.88;;;27.50;37.00;;;;;;5070320;28;20082;-71
2021/09/07 12:08:48;;;;;;;11.85;4.22;;;27.20;37.70;;;;;;5071981;28;20485;-71
2021/09/07 12:11:31;;;;;;;11.00;3.88;;;27.30;37.30;;;;;;5070477;28;20033;-71
2021/09/07 12:14:20;;;;;;;10.40;3.78;;;27.20;37.80;;;;;;5071759;28;20078;-71
2021/09/07 12:16:56;;;;;;;9.32;4.22;;;27.30;36.90;;;;;;5071735;28;20033;-70
2021/09/07 12:19:30;;;;;;;;;;;27.50;35.70;;;;;;5072482;28;20385;-71
2021/09/07 12:22:14;;;;;;;6.25;3.78;;;27.60;35.80;;;;;;5070440;28;19908;-71
2021/09/07 12:24:42;;;;;;;7.53;4.20;;;27.60;35.70;;;;;;5071446;28;20037;-70
2021/09/07 12:27:23;;;;;;;5.88;3.88;;;27.60;35.90;;;;;;5070178;28;20025;-71
2021/09/07 12:30:07;;;;;;;7.15;3.47;;;27.50;35.90;;;;;;5071534;28;20112;-71
2021/09/07 12:33:05;;;;;;;6.18;3.88;;;27.50;37.20;;;;;;5071473;28;20040;-71
2021/09/07 12:35:41;;;;;;;8.73;3.70;;;27.50;36.50;;;;;;5069903;28;20032;-72
2021/09/07 12:38:14;;;;;;;5.68;3.40;;;27.40;36.80;;;;;;5071351;28;20154;-71
2021/09/07 12:40:46;;;;;;;6.13;4.20;;;27.50;35.80;;;;;;5071358;28;20036;-71
2021/09/07 12:43:20;;;;;;;4.78;3.85;;;27.60;34.70;;;;;;5071061;28;20029;-71
2021/09/07 12:45:48;;;;;;;13.50;3.92;;;27.60;35.20;;;;;;5071136;28;20085;-70
2021/09/07 12:48:14;;;;;;;6.68;4.22;;;27.50;35.30;;;;;;5071159;28;20024;-71
2021/09/07 12:50:40;;;;;;;7.95;3.90;;;27.70;35.60;;;;;;5071427;28;20093;-71
2021/09/07 12:53:07;;;;;;;5.57;3.38;;;27.60;32.20;;;;;;5071170;28;20389;-70
2021/09/07 12:55:37;;;;;;;5.93;3.78;;;27.60;31.70;;;;;;5070668;28;20041;-71
2021/09/07 12:58:04;;;;;;;4.55;3.50;;;27.60;31.40;;;;;;5070918;28;20166;-71
2021/09/07 13:00:30;;;;;;;5.65;3.47;;;27.60;31.60;;;;;;5071239;28;20028;-70
2021/09/07 13:02:56;;;;;;;6.25;3.72;;;27.70;31.10;;;;;;5071149;28;20028;-71
2021/09/07 13:05:21;;;;;;;4.60;3.60;;;27.60;32.00;;;;;;5069279;28;20020;-71
2021/09/07 13:07:47;;;;;;;11.15;3.95;;;27.60;31.70;;;;;;5070745;28;20048;-71
2021/09/07 13:10:12;;;;;;;7.80;3.42;;;27.70;31.30;;;;;;5069695;28;20896;-71
2021/09/07 13:12:38;;;;;;;6.68;4.03;;;27.70;31.40;;;;;;5069469;28;20485;-71